Terminal Aerodrome Forecast
Issued by NWS

Home | Current Version | Previous Version | Text Only | Print | Product List | Glossary On
Versions: 1 2 3 4 5 6 7 8 9 10 11 12 13 14
955
FTUS46 KPDT 271139
TAFDLS
TAF
KDLS 271139Z 2712/2812 10005KT P6SM FEW300
     FM272100 03007KT P6SM FEW080
     FM280400 02005KT P6SM SKC
     FM280800 13003KT P6SM SKC=

USA.gov is the U.S. government's official web portal to all federal, state and local government web resources and services.